createdAt,value
2023-01-21T00:54:39.470Z,0.50
2023-01-21T00:55:40.438Z,0.50
2023-01-21T00:56:40.424Z,0.50
2023-01-21T00:57:40.424Z,0.50
2023-01-21T00:58:40.404Z,0.50
2023-01-21T00:59:40.668Z,0.50
2023-01-21T01:00:40.384Z,0.41
2023-01-21T01:01:40.474Z,0.37
2023-01-21T01:02:40.429Z,0.35
2023-01-21T01:03:40.361Z,0.37
2023-01-21T01:04:40.357Z,0.39
2023-01-21T01:05:40.340Z,0.43
2023-01-21T01:06:40.330Z,0.48
2023-01-21T01:07:40.324Z,0.50
2023-01-21T01:08:40.311Z,0.50
2023-01-21T01:09:40.305Z,0.51
2023-01-21T01:10:40.328Z,0.50
2023-01-21T01:11:40.290Z,0.50
2023-01-21T01:12:40.278Z,0.50
2023-01-21T01:13:40.269Z,0.50
2023-01-21T01:14:40.266Z,0.51
2023-01-21T01:15:40.280Z,0.51
2023-01-21T01:16:40.244Z,0.51
2023-01-21T01:17:40.234Z,0.50
2023-01-21T01:18:40.225Z,0.51
2023-01-21T01:19:40.211Z,0.50
2023-01-21T01:20:40.203Z,0.51
2023-01-21T01:21:40.207Z,0.50
2023-01-21T01:22:40.184Z,0.50
2023-01-21T01:23:40.175Z,0.51
2023-01-21T01:24:40.169Z,0.51
2023-01-21T01:25:40.159Z,0.50
2023-01-21T01:26:42.118Z,0.51
2023-01-21T01:27:40.154Z,0.51
2023-01-21T01:28:40.130Z,0.51
2023-01-21T01:29:40.121Z,0.51
2023-01-21T01:30:40.168Z,0.51
2023-01-21T01:31:40.200Z,0.50
2023-01-21T01:32:40.098Z,0.51
2023-01-21T01:33:40.117Z,0.51
2023-01-21T01:34:40.119Z,0.50
2023-01-21T01:35:40.067Z,0.50
2023-01-21T01:36:40.059Z,0.50
2023-01-21T01:37:40.064Z,0.50
2023-01-21T01:38:40.040Z,0.51
2023-01-21T01:39:40.039Z,0.50
2023-01-21T01:40:40.025Z,0.50
2023-01-21T01:41:40.025Z,0.50
2023-01-21T01:42:40.027Z,0.51
2023-01-21T01:43:39.995Z,0.51
2023-01-21T01:44:39.991Z,0.50
2023-01-21T01:45:39.981Z,0.51
2023-01-21T01:46:40.046Z,0.51
2023-01-21T01:47:39.962Z,0.51
2023-01-21T01:48:39.952Z,0.51
2023-01-21T01:49:39.948Z,0.52
2023-01-21T01:50:39.934Z,0.50
2023-01-21T01:51:39.921Z,0.52
2023-01-21T01:52:39.912Z,0.52
2023-01-21T01:53:39.903Z,0.52
2023-01-21T01:54:39.903Z,0.51
2023-01-21T01:55:39.891Z,0.51
2023-01-21T01:56:39.876Z,0.50
2023-01-21T01:57:39.868Z,0.51
2023-01-21T01:58:39.901Z,0.51
2023-01-21T01:59:39.870Z,0.51
2023-01-21T02:00:39.841Z,0.51
2023-01-21T02:01:39.901Z,0.51
2023-01-21T02:02:39.941Z,0.51
2023-01-21T02:03:39.812Z,0.51
2023-01-21T02:04:39.801Z,0.51
2023-01-21T02:05:39.797Z,0.51
2023-01-21T02:06:39.806Z,0.51
2023-01-21T02:07:39.778Z,0.52
2023-01-21T02:08:39.769Z,0.51
2023-01-21T02:09:39.760Z,0.50
2023-01-21T02:10:39.759Z,0.51
2023-01-21T02:11:39.747Z,0.50
2023-01-21T02:12:39.733Z,0.51
2023-01-21T02:13:39.725Z,0.52
2023-01-21T02:14:39.745Z,0.52
2023-01-21T02:15:39.706Z,0.51
2023-01-21T02:16:39.726Z,0.51
2023-01-21T02:17:39.683Z,0.52
2023-01-21T02:18:39.678Z,0.51
2023-01-21T02:19:40.449Z,0.52
2023-01-21T02:20:39.659Z,0.52
2023-01-21T02:21:39.664Z,0.51
2023-01-21T02:22:39.655Z,0.51
2023-01-21T02:23:39.631Z,0.51
2023-01-21T02:24:39.625Z,0.51
2023-01-21T02:25:39.615Z,0.51
2023-01-21T02:26:39.606Z,0.51
2023-01-21T02:27:39.601Z,0.51
2023-01-21T02:28:39.586Z,0.51
2023-01-21T02:29:39.578Z,0.51
2023-01-21T02:30:39.626Z,0.51
2023-01-21T02:31:39.590Z,0.51
2023-01-21T02:32:39.561Z,0.51
2023-01-21T02:33:39.541Z,0.52
2023-01-21T02:34:39.545Z,0.51
2023-01-21T02:35:39.525Z,0.52
2023-01-21T02:36:39.514Z,0.51
2023-01-21T02:37:39.507Z,0.52
2023-01-21T02:38:39.500Z,0.52
2023-01-21T02:39:39.487Z,0.52
2023-01-21T02:40:39.480Z,0.51
2023-01-21T02:41:39.467Z,0.52
2023-01-21T02:42:39.463Z,0.51
2023-01-21T02:43:39.459Z,0.52
2023-01-21T02:44:39.467Z,0.52
2023-01-21T02:45:39.448Z,0.52
2023-01-21T02:46:39.547Z,0.51
2023-01-21T02:47:39.423Z,0.53
2023-01-21T02:48:39.423Z,0.52
2023-01-21T02:49:39.401Z,0.51
2023-01-21T02:50:39.391Z,0.52
2023-01-21T02:51:39.378Z,0.52
2023-01-21T02:52:39.372Z,0.52
2023-01-21T02:53:39.365Z,0.52
2023-01-21T02:54:39.405Z,0.50
2023-01-21T02:55:40.419Z,0.51
2023-01-21T02:56:39.338Z,0.51
2023-01-21T02:57:39.326Z,0.51
2023-01-21T02:58:39.312Z,0.51
2023-01-21T02:59:39.306Z,0.52
2023-01-21T03:00:39.368Z,0.52
2023-01-21T03:01:39.319Z,0.52
2023-01-21T03:02:39.310Z,0.52
2023-01-21T03:03:41.239Z,0.51
2023-01-21T03:04:39.272Z,0.51
2023-01-21T03:05:39.250Z,0.52
2023-01-21T03:06:39.248Z,0.52
2023-01-21T03:07:39.232Z,0.52
2023-01-21T03:08:39.226Z,0.52
2023-01-21T03:09:39.215Z,0.52
2023-01-21T03:10:39.208Z,0.52
2023-01-21T03:11:39.197Z,0.52
2023-01-21T03:12:39.193Z,0.52
2023-01-21T03:13:39.183Z,0.52
2023-01-21T03:14:39.181Z,0.52
2023-01-21T03:15:39.160Z,0.50
2023-01-21T03:16:39.213Z,0.52
2023-01-21T03:17:39.149Z,0.52
2023-01-21T03:18:39.162Z,0.52
2023-01-21T03:19:39.129Z,0.52
2023-01-21T03:20:39.115Z,0.52
2023-01-21T03:21:39.110Z,0.52
2023-01-21T03:22:39.099Z,0.52
2023-01-21T03:23:39.092Z,0.51
2023-01-21T03:24:39.086Z,0.52
2023-01-21T03:25:39.078Z,0.53
2023-01-21T03:26:39.062Z,0.52
2023-01-21T03:27:39.055Z,0.53
2023-01-21T03:28:39.046Z,0.53
2023-01-21T03:29:39.035Z,0.52
2023-01-21T03:30:39.036Z,0.52
2023-01-21T03:31:39.040Z,0.52
2023-01-21T03:32:39.006Z,0.52
2023-01-21T03:33:39.014Z,0.52
2023-01-21T03:34:39.013Z,0.53
2023-01-21T03:35:38.995Z,0.53
2023-01-21T03:36:38.976Z,0.53
2023-01-21T03:37:38.973Z,0.53
2023-01-21T03:38:38.953Z,0.52
2023-01-21T03:39:38.941Z,0.53
2023-01-21T03:40:38.938Z,0.52
2023-01-21T03:41:38.926Z,0.53
2023-01-21T03:42:38.918Z,0.53
2023-01-21T03:43:38.909Z,0.53
2023-01-21T03:44:38.899Z,0.53
2023-01-21T03:45:38.923Z,0.52
2023-01-21T03:46:38.896Z,0.52
2023-01-21T03:47:38.875Z,0.52
2023-01-21T03:48:38.869Z,0.52
2023-01-21T03:49:38.868Z,0.52
2023-01-21T03:50:38.873Z,0.53
2023-01-21T03:51:38.836Z,0.52
2023-01-21T03:52:38.827Z,0.52
2023-01-21T03:53:38.817Z,0.53
2023-01-21T03:54:38.818Z,0.52
2023-01-21T03:55:38.803Z,0.52
2023-01-21T03:56:38.791Z,0.53
2023-01-21T03:57:38.788Z,0.53
2023-01-21T03:58:38.772Z,0.53
2023-01-21T03:59:38.774Z,0.52
2023-01-21T04:00:38.822Z,0.53
2023-01-21T04:01:38.746Z,0.53
2023-01-21T04:02:38.736Z,0.53
2023-01-21T04:03:38.725Z,0.53
2023-01-21T04:04:38.722Z,0.53
2023-01-21T04:05:38.706Z,0.52
2023-01-21T04:06:38.725Z,0.52
2023-01-21T04:07:38.693Z,0.53
2023-01-21T04:08:38.689Z,0.53
2023-01-21T04:09:38.676Z,0.53
2023-01-21T04:10:38.660Z,0.53
2023-01-21T04:11:38.656Z,0.52
2023-01-21T04:12:38.648Z,0.53
2023-01-21T04:13:38.638Z,0.53
2023-01-21T04:14:38.644Z,0.53
2023-01-21T04:15:38.618Z,0.53
2023-01-21T04:16:38.706Z,0.53
2023-01-21T04:17:38.601Z,0.53
2023-01-21T04:18:38.596Z,0.52
2023-01-21T04:19:38.624Z,0.53
2023-01-21T04:20:38.578Z,0.53
2023-01-21T04:21:38.571Z,0.53
2023-01-21T04:22:38.577Z,0.53
2023-01-21T04:23:38.557Z,0.53
2023-01-21T04:24:38.536Z,0.52
2023-01-21T04:25:38.526Z,0.52
2023-01-21T04:26:38.516Z,0.53
2023-01-21T04:27:38.520Z,0.53
2023-01-21T04:28:38.507Z,0.53
2023-01-21T04:29:38.498Z,0.54
2023-01-21T04:30:38.505Z,0.54
2023-01-21T04:31:38.518Z,0.54
2023-01-21T04:32:38.463Z,0.54
2023-01-21T04:33:38.464Z,0.52
2023-01-21T04:34:38.447Z,0.54
2023-01-21T04:35:38.435Z,0.53
2023-01-21T04:36:38.431Z,0.53
2023-01-21T04:37:38.421Z,0.54
2023-01-21T04:38:38.433Z,0.53
2023-01-21T04:39:38.403Z,0.54
2023-01-21T04:40:38.398Z,0.54
2023-01-21T04:41:38.382Z,0.54
2023-01-21T04:42:38.373Z,0.53
2023-01-21T04:43:38.373Z,0.54
2023-01-21T04:44:38.360Z,0.54
2023-01-21T04:45:38.400Z,0.54
2023-01-21T04:46:38.349Z,0.55
2023-01-21T04:47:38.329Z,0.55
2023-01-21T04:48:38.315Z,0.54
2023-01-21T04:49:38.309Z,0.55
2023-01-21T04:50:38.304Z,0.55
2023-01-21T04:51:38.340Z,0.55
2023-01-21T04:52:38.279Z,0.55
2023-01-21T04:53:38.272Z,0.54
2023-01-21T04:54:38.295Z,0.55
2023-01-21T04:55:38.260Z,0.54
2023-01-21T04:56:38.255Z,0.54
2023-01-21T04:57:38.238Z,0.55
2023-01-21T04:58:38.229Z,0.54
2023-01-21T04:59:38.221Z,0.55
2023-01-21T05:00:38.210Z,0.54
2023-01-21T05:01:38.202Z,0.55
2023-01-21T05:02:38.240Z,0.54
2023-01-21T05:03:38.185Z,0.55
2023-01-21T05:04:38.177Z,0.54
2023-01-21T05:05:38.167Z,0.55
2023-01-21T05:06:38.155Z,0.55
2023-01-21T05:07:38.157Z,0.55
2023-01-21T05:08:38.142Z,0.55
2023-01-21T05:09:38.129Z,0.56
2023-01-21T05:10:38.144Z,0.54
2023-01-21T05:11:38.111Z,0.55
2023-01-21T05:12:38.103Z,0.54
2023-01-21T05:13:38.105Z,0.54
2023-01-21T05:14:38.083Z,0.54
2023-01-21T05:15:38.160Z,0.53
2023-01-21T05:16:38.109Z,0.55
2023-01-21T05:17:38.054Z,0.55
2023-01-21T05:18:38.043Z,0.55
2023-01-21T05:19:38.038Z,0.54
2023-01-21T05:20:38.034Z,0.54
2023-01-21T05:21:38.028Z,0.55
2023-01-21T05:22:38.013Z,0.55
2023-01-21T05:23:38.003Z,0.54
2023-01-21T05:24:37.996Z,0.54
2023-01-21T05:25:37.983Z,0.56
2023-01-21T05:26:38.008Z,0.55
2023-01-21T05:27:37.962Z,0.55
2023-01-21T05:28:37.956Z,0.55
2023-01-21T05:29:37.948Z,0.55
2023-01-21T05:30:40.382Z,0.54
2023-01-21T05:31:38.092Z,0.55
2023-01-21T05:32:37.933Z,0.55
2023-01-21T05:33:37.911Z,0.55
2023-01-21T05:34:37.900Z,0.56
2023-01-21T05:35:37.897Z,0.56
2023-01-21T05:36:37.887Z,0.55
2023-01-21T05:37:37.881Z,0.55
2023-01-21T05:38:37.869Z,0.55
2023-01-21T05:39:37.858Z,0.55
2023-01-21T05:40:37.867Z,0.56
2023-01-21T05:41:37.841Z,0.55
2023-01-21T05:42:37.869Z,0.54
2023-01-21T05:44:37.818Z,0.56
2023-01-21T05:45:37.812Z,0.56
2023-01-21T05:46:37.798Z,0.54
2023-01-21T05:47:37.783Z,0.55
2023-01-21T05:48:37.774Z,0.55
2023-01-21T05:49:37.766Z,0.55
2023-01-21T05:50:37.760Z,0.55
2023-01-21T05:51:37.749Z,0.56
2023-01-21T05:52:37.744Z,0.55
2023-01-21T05:53:37.726Z,0.55
2023-01-21T05:54:37.798Z,0.55
2023-01-21T05:55:37.711Z,0.55
2023-01-21T05:56:37.705Z,0.55
2023-01-21T05:57:37.694Z,0.55
2023-01-21T05:58:37.714Z,0.54
2023-01-21T05:59:37.683Z,0.55
2023-01-21T06:00:37.692Z,0.55
2023-01-21T06:01:37.658Z,0.55
2023-01-21T06:02:37.686Z,0.55
2023-01-21T06:03:37.660Z,0.56
2023-01-21T06:04:37.628Z,0.54
2023-01-21T06:05:37.621Z,0.55
2023-01-21T06:06:37.610Z,0.55
2023-01-21T06:07:37.605Z,0.55
2023-01-21T06:08:37.592Z,0.55
2023-01-21T06:09:37.583Z,0.54
2023-01-21T06:10:37.575Z,0.52
2023-01-21T06:11:37.569Z,0.51
2023-01-21T06:12:37.555Z,0.52
2023-01-21T06:13:37.548Z,0.53
2023-01-21T06:14:37.580Z,0.52
2023-01-21T06:15:37.567Z,0.52
2023-01-21T06:16:37.531Z,0.51
2023-01-21T06:17:37.511Z,0.50
2023-01-21T06:18:37.502Z,0.51
2023-01-21T06:19:37.505Z,0.50
2023-01-21T06:20:37.487Z,0.52
2023-01-21T06:21:37.477Z,0.52
2023-01-21T06:22:37.467Z,0.52
2023-01-21T06:23:37.459Z,0.51
2023-01-21T06:24:37.461Z,0.51
2023-01-21T06:25:37.443Z,0.50
2023-01-21T06:26:37.433Z,0.51
2023-01-21T06:27:37.421Z,0.51
2023-01-21T06:28:37.409Z,0.51
2023-01-21T06:29:37.401Z,0.52
2023-01-21T06:30:37.441Z,0.51
2023-01-21T06:31:37.533Z,0.51
2023-01-21T06:32:37.404Z,0.50
2023-01-21T06:33:37.366Z,0.50
2023-01-21T06:34:37.364Z,0.51
2023-01-21T06:35:37.350Z,0.51
2023-01-21T06:36:37.349Z,0.50
2023-01-21T06:37:37.335Z,0.51
2023-01-21T06:38:37.319Z,0.50
2023-01-21T06:39:37.315Z,0.51
2023-01-21T06:40:37.308Z,0.51
2023-01-21T06:41:37.297Z,0.51
2023-01-21T06:42:37.280Z,0.50
2023-01-21T06:43:37.278Z,0.50
2023-01-21T06:44:37.283Z,0.50
2023-01-21T06:45:37.272Z,0.51
2023-01-21T06:46:41.079Z,0.51
2023-01-21T06:47:37.246Z,0.51
2023-01-21T06:48:37.322Z,0.51
2023-01-21T06:49:37.251Z,0.51
2023-01-21T06:50:37.215Z,0.51
2023-01-21T06:51:37.212Z,0.51
2023-01-21T06:52:37.199Z,0.51
2023-01-21T06:53:37.206Z,0.51
2023-01-21T06:54:37.181Z,0.51
2023-01-21T06:55:37.175Z,0.52
2023-01-21T06:56:37.169Z,0.50
2023-01-21T06:57:37.151Z,0.51
2023-01-21T06:58:37.147Z,0.51
2023-01-21T06:59:37.131Z,0.51
2023-01-21T07:00:37.122Z,0.51
2023-01-21T07:01:37.143Z,0.51
2023-01-21T07:02:37.185Z,0.52
2023-01-21T07:03:37.126Z,0.52
2023-01-21T07:04:37.102Z,0.51
2023-01-21T07:05:37.115Z,0.51
2023-01-21T07:06:37.068Z,0.52
2023-01-21T07:07:37.100Z,0.52
2023-01-21T07:08:37.051Z,0.51
2023-01-21T07:09:37.042Z,0.52
2023-01-21T07:10:37.031Z,0.52
2023-01-21T07:11:37.036Z,0.52
2023-01-21T07:12:37.032Z,0.53
2023-01-21T07:13:37.004Z,0.52
2023-01-21T07:14:37.000Z,0.51
2023-01-21T07:15:36.989Z,0.52
2023-01-21T07:16:36.978Z,0.51
2023-01-21T07:17:36.973Z,0.51
2023-01-21T07:18:36.983Z,0.52
2023-01-21T07:19:36.948Z,0.52
2023-01-21T07:20:37.968Z,0.52
2023-01-21T07:21:36.934Z,0.54
2023-01-21T07:22:36.925Z,0.54
2023-01-21T07:23:36.910Z,0.53
2023-01-21T07:24:36.913Z,0.54
2023-01-21T07:25:36.896Z,0.53
2023-01-21T07:26:36.889Z,0.54
2023-01-21T07:27:36.875Z,0.52
2023-01-21T07:28:36.915Z,0.52
2023-01-21T07:29:36.860Z,0.53
2023-01-21T07:30:36.896Z,0.52
2023-01-21T07:31:37.104Z,0.53
2023-01-21T07:32:36.836Z,0.52
2023-01-21T07:33:36.820Z,0.52
2023-01-21T07:34:36.838Z,0.52
2023-01-21T07:35:36.802Z,0.51
2023-01-21T07:36:36.799Z,0.53
2023-01-21T07:37:36.818Z,0.52
2023-01-21T07:38:36.774Z,0.52
2023-01-21T07:39:36.772Z,0.52
2023-01-21T07:40:36.757Z,0.52
2023-01-21T07:41:36.749Z,0.51
2023-01-21T07:42:36.742Z,0.51
2023-01-21T07:43:36.728Z,0.52
2023-01-21T07:44:36.720Z,0.51
2023-01-21T07:45:36.717Z,0.52
2023-01-21T07:46:36.737Z,0.51
2023-01-21T07:47:36.696Z,0.53
2023-01-21T07:48:36.698Z,0.51
2023-01-21T07:49:36.675Z,0.52
2023-01-21T07:50:36.696Z,0.52
2023-01-21T07:51:36.663Z,0.52
2023-01-21T07:52:36.652Z,0.52
2023-01-21T07:53:36.641Z,0.52
2023-01-21T07:54:36.632Z,0.52
2023-01-21T07:55:36.622Z,0.51
2023-01-21T07:56:36.810Z,0.51
2023-01-21T07:57:36.601Z,0.52
2023-01-21T07:58:36.599Z,0.53
2023-01-21T07:59:36.597Z,0.51
2023-01-21T08:00:36.575Z,0.51
2023-01-21T08:01:36.597Z,0.51
2023-01-21T08:02:36.636Z,0.51
2023-01-21T08:03:36.544Z,0.52
2023-01-21T08:04:36.539Z,0.52
2023-01-21T08:05:36.533Z,0.52
2023-01-21T08:06:36.550Z,0.52
2023-01-21T08:07:36.518Z,0.51
2023-01-21T08:08:36.502Z,0.53
2023-01-21T08:09:36.499Z,0.51
2023-01-21T08:10:36.485Z,0.52
2023-01-21T08:11:36.478Z,0.52
2023-01-21T08:12:36.469Z,0.52
2023-01-21T08:13:36.465Z,0.52
2023-01-21T08:14:36.456Z,0.53
2023-01-21T08:15:36.456Z,0.53
2023-01-21T08:16:36.486Z,0.52
2023-01-21T08:17:36.429Z,0.50
2023-01-21T08:18:36.454Z,0.50
2023-01-21T08:19:36.404Z,0.52
2023-01-21T08:20:36.396Z,0.53
2023-01-21T08:21:36.388Z,0.51
2023-01-21T08:22:36.403Z,0.52
2023-01-21T08:23:36.370Z,0.52
2023-01-21T08:24:36.361Z,0.52
2023-01-21T08:25:36.350Z,0.53
2023-01-21T08:26:36.340Z,0.51
2023-01-21T08:27:36.329Z,0.52
2023-01-21T08:28:36.328Z,0.52
2023-01-21T08:29:36.316Z,0.52
2023-01-21T08:30:36.364Z,0.51
2023-01-21T08:31:36.366Z,0.50
2023-01-21T08:32:36.288Z,0.52
2023-01-21T08:33:36.285Z,0.52
2023-01-21T08:34:36.268Z,0.52
2023-01-21T08:35:36.259Z,0.53
2023-01-21T08:36:36.250Z,0.52
2023-01-21T08:37:36.245Z,0.52
2023-01-21T08:38:36.263Z,0.51
2023-01-21T08:39:36.217Z,0.52
2023-01-21T08:40:36.218Z,0.50
2023-01-21T08:41:36.215Z,0.53
2023-01-21T08:42:36.200Z,0.53
2023-01-21T08:43:36.188Z,0.52
2023-01-21T08:44:36.179Z,0.52
2023-01-21T08:45:36.214Z,0.52
2023-01-21T08:46:36.157Z,0.53
2023-01-21T08:47:36.155Z,0.52
2023-01-21T08:48:36.143Z,0.52
2023-01-21T08:49:36.132Z,0.51
2023-01-21T08:50:36.131Z,0.53
2023-01-21T08:51:36.118Z,0.52
2023-01-21T08:52:36.108Z,0.52
2023-01-21T08:53:36.097Z,0.50
2023-01-21T08:54:36.111Z,0.51
2023-01-21T08:55:36.081Z,0.52
2023-01-21T08:56:36.068Z,0.52
2023-01-21T08:57:36.063Z,0.52
2023-01-21T08:58:36.062Z,0.50
2023-01-21T08:59:36.041Z,0.52
2023-01-21T09:00:36.160Z,0.52
2023-01-21T09:01:36.025Z,0.51
2023-01-21T09:02:36.022Z,0.51
2023-01-21T09:03:36.018Z,0.51
2023-01-21T09:04:35.996Z,0.50
2023-01-21T09:05:35.997Z,0.51
2023-01-21T09:06:35.976Z,0.54
2023-01-21T09:07:35.969Z,0.54
2023-01-21T09:08:35.964Z,0.53
2023-01-21T09:09:35.955Z,0.53
2023-01-21T09:10:35.965Z,0.52
2023-01-21T09:11:35.935Z,0.53
2023-01-21T09:12:35.927Z,0.54
2023-01-21T09:13:35.918Z,0.52
2023-01-21T09:14:35.908Z,0.54
2023-01-21T09:15:35.895Z,0.54
2023-01-21T09:16:35.914Z,0.52
2023-01-21T09:17:35.876Z,0.53
2023-01-21T09:18:35.866Z,0.52
2023-01-21T09:19:35.860Z,0.51
2023-01-21T09:20:35.849Z,0.52
2023-01-21T09:21:35.916Z,0.52
2023-01-21T09:22:35.840Z,0.53
2023-01-21T09:23:35.830Z,0.53
2023-01-21T09:24:35.813Z,0.53
2023-01-21T09:25:35.803Z,0.53
2023-01-21T09:26:35.815Z,0.53
2023-01-21T09:27:35.793Z,0.52
2023-01-21T09:28:35.779Z,0.52
2023-01-21T09:29:35.771Z,0.52
2023-01-21T09:30:35.788Z,0.51
2023-01-21T09:31:35.789Z,0.52
2023-01-21T09:32:35.742Z,0.51
2023-01-21T09:33:35.738Z,0.52
2023-01-21T09:34:35.991Z,0.53
2023-01-21T09:35:35.722Z,0.53
2023-01-21T09:36:35.707Z,0.53
2023-01-21T09:37:35.709Z,0.51
2023-01-21T09:38:35.692Z,0.54
2023-01-21T09:39:35.679Z,0.52
2023-01-21T09:40:35.672Z,0.53
2023-01-21T09:41:35.663Z,0.52
2023-01-21T09:42:35.679Z,0.52
2023-01-21T09:43:35.646Z,0.54
2023-01-21T09:44:35.634Z,0.55
2023-01-21T09:45:35.697Z,0.54
2023-01-21T09:46:35.614Z,0.53
2023-01-21T09:47:35.612Z,0.50
2023-01-21T09:48:35.596Z,0.50
2023-01-21T09:49:35.586Z,0.53
2023-01-21T09:50:35.579Z,0.51
2023-01-21T09:51:35.568Z,0.52
2023-01-21T09:52:35.564Z,0.53
2023-01-21T09:53:35.551Z,0.55
2023-01-21T09:54:35.542Z,0.56
2023-01-21T10:29:35.222Z,0.54
2023-01-21T12:19:34.230Z,0.54
2023-01-21T12:20:34.215Z,0.54
2023-01-21T12:21:34.211Z,0.56
2023-01-21T12:23:34.190Z,0.53
2023-01-21T12:24:34.188Z,0.54
2023-01-21T12:25:34.177Z,0.55
2023-01-21T12:26:34.163Z,0.56
2023-01-21T12:27:34.156Z,0.55
2023-01-21T12:28:34.146Z,0.52
2023-01-21T12:29:34.132Z,0.53
2023-01-21T12:30:34.148Z,0.56
2023-01-21T12:31:34.199Z,0.58
2023-01-21T12:32:34.109Z,0.55
2023-01-21T12:33:34.101Z,0.54
2023-01-21T12:34:34.091Z,0.54
2023-01-21T12:35:34.092Z,0.55
2023-01-21T12:36:34.074Z,0.56
2023-01-21T12:37:34.063Z,0.55
2023-01-21T12:38:34.084Z,0.56
2023-01-21T12:39:34.079Z,0.57
2023-01-21T12:40:34.055Z,0.58
2023-01-21T12:41:34.028Z,0.57
2023-01-21T12:42:34.040Z,0.56
2023-01-21T12:43:34.008Z,0.58
2023-01-21T12:44:34.004Z,0.59
2023-01-21T12:45:33.988Z,0.57
2023-01-21T12:46:34.008Z,0.58
2023-01-21T12:47:33.973Z,0.57
2023-01-21T12:48:33.981Z,0.57
2023-01-21T12:49:33.952Z,0.58
2023-01-21T12:50:33.945Z,0.57
2023-01-21T12:51:33.938Z,0.58
2023-01-21T12:52:33.928Z,0.56
2023-01-21T12:53:33.927Z,0.55
2023-01-21T12:54:33.937Z,0.53
2023-01-21T12:55:35.463Z,0.56
2023-01-21T12:56:33.909Z,0.56
2023-01-21T12:57:33.887Z,0.56
2023-01-21T12:58:33.875Z,0.56
2023-01-21T12:59:33.874Z,0.55
2023-01-21T13:00:33.923Z,0.56
2023-01-21T13:01:33.922Z,0.57
2023-01-21T13:02:33.834Z,0.58
2023-01-21T13:03:33.835Z,0.58
2023-01-21T13:04:33.819Z,0.56
2023-01-21T13:05:33.811Z,0.57
2023-01-21T13:06:52.414Z,0.59
2023-01-21T13:07:33.788Z,0.59
2023-01-21T13:08:33.783Z,0.59
2023-01-21T13:09:33.771Z,0.59
2023-01-21T13:10:33.799Z,0.55
2023-01-21T13:11:33.753Z,0.54
2023-01-21T13:12:33.743Z,0.57
2023-01-21T13:13:33.738Z,0.57
2023-01-21T13:14:33.730Z,0.58
2023-01-21T13:15:33.719Z,0.57
2023-01-21T13:16:33.784Z,0.59
2023-01-21T13:17:33.704Z,0.59
2023-01-21T13:18:33.727Z,0.58
2023-01-21T13:19:33.685Z,0.57
2023-01-21T13:20:33.671Z,0.54
2023-01-21T13:21:33.662Z,0.55
2023-01-21T13:22:33.692Z,0.56
2023-01-21T13:23:33.644Z,0.56
2023-01-21T13:24:33.641Z,0.56
2023-01-21T13:25:33.625Z,0.56
2023-01-21T13:26:33.641Z,0.54
2023-01-21T13:27:33.608Z,0.58
2023-01-21T13:28:33.599Z,0.58
2023-01-21T13:29:33.591Z,0.57
2023-01-21T13:31:33.685Z,0.60
2023-01-21T13:32:33.567Z,0.59
2023-01-21T13:33:33.559Z,0.58
2023-01-21T13:34:33.550Z,0.59
2023-01-21T13:35:33.538Z,0.57
2023-01-21T13:36:33.533Z,0.58
2023-01-21T13:37:33.515Z,0.59
2023-01-21T13:38:33.517Z,0.56
2023-01-21T13:39:33.498Z,0.59
2023-01-21T13:40:33.489Z,0.56
2023-01-21T13:41:33.480Z,0.55
2023-01-21T13:42:33.498Z,0.58
2023-01-21T13:43:33.474Z,0.57
2023-01-21T13:44:33.474Z,0.58
2023-01-21T13:45:33.532Z,0.58
2023-01-21T13:46:33.437Z,0.58
2023-01-21T13:47:33.425Z,0.57
2023-01-21T13:48:33.433Z,0.58
2023-01-21T13:49:33.407Z,0.58
2023-01-21T13:50:33.395Z,0.58
2023-01-21T13:51:33.386Z,0.60
2023-01-21T13:52:33.384Z,0.61
2023-01-21T13:53:33.373Z,0.61
2023-01-21T13:54:33.365Z,0.59
2023-01-21T13:55:33.357Z,0.58
2023-01-21T13:56:33.349Z,0.59
2023-01-21T13:57:33.342Z,0.57
2023-01-21T13:58:33.365Z,0.57
2023-01-21T13:59:33.316Z,0.57
2023-01-21T14:00:33.372Z,0.58
2023-01-21T14:01:33.299Z,0.58
2023-01-21T14:02:33.293Z,0.57
2023-01-21T14:03:33.283Z,0.58
2023-01-21T14:04:33.278Z,0.57
2023-01-21T14:05:33.268Z,0.57
2023-01-21T14:06:33.254Z,0.57
2023-01-21T14:07:33.252Z,0.59
2023-01-21T14:08:33.241Z,0.60
2023-01-21T14:09:34.957Z,0.56
2023-01-21T14:10:33.219Z,0.57
2023-01-21T14:11:33.229Z,0.57
2023-01-21T14:13:33.197Z,0.58
2023-01-21T14:14:33.203Z,0.57
2023-01-21T14:15:33.171Z,0.56
2023-01-21T14:16:33.235Z,0.55
2023-01-21T14:17:33.154Z,0.56
2023-01-21T14:18:33.154Z,0.57
2023-01-21T14:19:33.136Z,0.59
2023-01-21T14:20:33.132Z,0.57
2023-01-21T14:21:33.117Z,0.57
2023-01-21T14:22:33.110Z,0.58
2023-01-21T14:23:33.123Z,0.57
2023-01-21T14:24:33.095Z,0.54
2023-01-21T14:25:33.084Z,0.54
2023-01-21T14:26:33.074Z,0.55
2023-01-21T14:27:33.070Z,0.55
2023-01-21T14:28:33.060Z,0.57
2023-01-21T14:29:33.044Z,0.57
2023-01-21T14:30:33.113Z,0.55
2023-01-21T14:31:33.072Z,0.54
2023-01-21T14:32:33.031Z,0.57
2023-01-21T14:33:33.010Z,0.56
2023-01-21T14:34:32.999Z,0.56
2023-01-21T14:35:33.028Z,0.56
2023-01-21T14:36:32.983Z,0.57
2023-01-21T14:37:32.971Z,0.57
2023-01-21T14:38:32.962Z,0.57
2023-01-21T14:39:32.956Z,0.60
2023-01-21T14:40:32.944Z,0.59
2023-01-21T14:41:32.940Z,0.59
2023-01-21T14:42:34.590Z,0.59
2023-01-21T14:43:32.922Z,0.60
2023-01-21T14:44:32.915Z,0.58
2023-01-21T14:45:32.957Z,0.58
2023-01-21T14:46:32.918Z,0.59
2023-01-21T14:47:32.880Z,0.58
2023-01-21T14:48:32.894Z,0.56
2023-01-21T14:49:32.864Z,0.54
2023-01-21T14:50:32.854Z,0.55
2023-01-21T14:51:32.855Z,0.59
2023-01-21T14:52:32.849Z,0.59
2023-01-21T14:53:32.865Z,0.57
2023-01-21T14:54:32.823Z,0.58
2023-01-21T14:55:32.824Z,0.57
2023-01-21T14:56:32.817Z,0.56
2023-01-21T14:57:32.793Z,0.57
2023-01-21T14:58:32.782Z,0.56
2023-01-21T14:59:32.787Z,0.56
2023-01-21T15:00:32.766Z,0.56
2023-01-21T15:01:32.805Z,0.55
2023-01-21T15:02:32.851Z,0.57
2023-01-21T15:03:32.738Z,0.57
2023-01-21T15:04:32.728Z,0.55
2023-01-21T15:05:32.716Z,0.57
2023-01-21T15:06:32.709Z,0.58
2023-01-21T15:07:32.701Z,0.59
2023-01-21T15:08:32.793Z,0.57
2023-01-21T15:09:32.683Z,0.56
2023-01-21T15:10:32.685Z,0.57
2023-01-21T15:11:32.664Z,0.57
2023-01-21T15:12:32.682Z,0.56
2023-01-21T15:13:32.644Z,0.57
2023-01-21T15:14:32.639Z,0.55
2023-01-21T15:15:32.632Z,0.55
2023-01-21T15:16:32.681Z,0.55
2023-01-21T15:17:32.614Z,0.56
2023-01-21T15:18:32.665Z,0.56
2023-01-21T15:19:32.640Z,0.56
2023-01-21T15:20:32.580Z,0.56
2023-01-21T15:21:32.571Z,0.54
2023-01-21T15:22:32.566Z,0.52
2023-01-21T15:23:32.585Z,0.54
2023-01-21T15:24:32.588Z,0.54
2023-01-21T15:25:32.541Z,0.54
2023-01-21T15:26:32.535Z,0.53
2023-01-21T15:27:32.518Z,0.54
2023-01-21T15:28:32.511Z,0.53
2023-01-21T15:29:32.507Z,0.54
2023-01-21T15:30:32.514Z,0.55
2023-01-21T15:31:32.582Z,0.56
2023-01-21T15:32:32.476Z,0.57
2023-01-21T15:33:32.469Z,0.55
2023-01-21T15:34:32.486Z,0.54
2023-01-21T15:35:32.456Z,0.54
2023-01-21T15:36:32.442Z,0.54
2023-01-21T15:37:32.429Z,0.55
2023-01-21T15:38:32.417Z,0.57
2023-01-21T15:39:32.418Z,0.55
2023-01-21T15:40:32.408Z,0.54
2023-01-21T15:41:32.390Z,0.55
2023-01-21T15:42:32.392Z,0.54
2023-01-21T15:43:32.373Z,0.53
2023-01-21T15:44:32.950Z,0.53
2023-01-21T15:45:32.350Z,0.57
2023-01-21T15:46:32.346Z,0.53
2023-01-21T15:47:32.337Z,0.53
2023-01-21T15:48:41.383Z,0.54
2023-01-21T15:49:32.336Z,0.54
2023-01-21T15:50:32.341Z,0.54
2023-01-21T15:51:32.380Z,0.55
2023-01-21T15:52:32.289Z,0.54
2023-01-21T15:53:32.280Z,0.54
2023-01-21T15:54:32.276Z,0.54
2023-01-21T15:55:32.263Z,0.53
2023-01-21T15:56:32.257Z,0.51
2023-01-21T15:57:32.244Z,0.52
2023-01-21T15:58:32.236Z,0.52
2023-01-21T15:59:32.236Z,0.52
2023-01-21T16:00:32.226Z,0.52
2023-01-21T16:01:32.307Z,0.52
2023-01-21T16:02:32.278Z,0.51
2023-01-21T16:03:32.189Z,0.54
2023-01-21T16:04:32.180Z,0.51
2023-01-21T16:05:32.175Z,0.53
2023-01-21T16:06:32.197Z,0.52
2023-01-21T16:07:32.156Z,0.51
2023-01-21T16:08:32.148Z,0.50
2023-01-21T16:09:32.140Z,0.53
2023-01-21T16:10:32.128Z,0.53
2023-01-21T16:11:32.117Z,0.53
2023-01-21T16:12:32.108Z,0.55
2023-01-21T16:13:32.110Z,0.55
2023-01-21T16:14:32.099Z,0.54
2023-01-21T16:15:32.106Z,0.55
2023-01-21T16:16:32.072Z,0.55
2023-01-21T16:17:32.061Z,0.54
2023-01-21T16:18:32.065Z,0.54
2023-01-21T16:19:32.056Z,0.55
2023-01-21T16:20:32.650Z,0.56
2023-01-21T16:21:32.034Z,0.58
2023-01-21T16:22:32.046Z,0.57
2023-01-21T16:23:32.009Z,0.55
2023-01-21T16:24:32.004Z,0.57
2023-01-21T16:25:31.996Z,0.57
2023-01-21T16:26:33.216Z,0.57
2023-01-21T16:27:32.012Z,0.58
2023-01-21T16:28:31.974Z,0.58
2023-01-21T16:29:31.955Z,0.58
2023-01-21T16:30:32.038Z,0.59
2023-01-21T16:31:32.129Z,0.58
2023-01-21T16:32:31.933Z,0.57
2023-01-21T16:33:31.920Z,0.58
2023-01-21T16:34:31.926Z,0.60
2023-01-21T16:35:31.902Z,0.59
2023-01-21T16:36:31.895Z,0.59
2023-01-21T16:37:31.886Z,0.59
2023-01-21T16:38:31.895Z,0.60
2023-01-21T16:39:31.868Z,0.60